Time;durP1;ratioP1;P1;durP2;ratioP2;P2;SDS_P1;SDS_P2;PMS_P1;PMS_P2;Temp;Humidity;BMP_temperature;BMP_pressure;BME280_temperature;BME280_humidity;BME280_pressure;Samples;Min_cycle;Max_cycle;Signal;HPM_P1;HPM_P2
2022/12/12 00:00:17;;;;;;;23.85;12.50;;;;;;;;;;4864864;29;20057;-59
2022/12/12 00:02:44;;;;;;;21.73;10.65;;;;;;;;;;4880816;29;20414;-61
2022/12/12 00:05:13;;;;;;;19.15;10.50;;;;;;;;;;4862847;29;20085;-60
2022/12/12 00:07:40;;;;;;;16.65;9.82;;;;;;;;;;4880169;29;20458;-62
2022/12/12 00:10:07;;;;;;;16.30;9.25;;;;;;;;;;4880115;29;20053;-59
2022/12/12 00:12:34;;;;;;;15.95;9.25;;;;;;;;;;4863297;29;20049;-60
2022/12/12 00:15:00;;;;;;;16.35;8.93;;;;;;;;;;4880200;29;20041;-60
2022/12/12 00:17:27;;;;;;;16.92;9.05;;;;;;;;;;4863392;29;20105;-60
2022/12/12 00:19:53;;;;;;;12.57;7.72;;;;;;;;;;4880078;29;20044;-60
2022/12/12 00:22:20;;;;;;;16.77;8.98;;;;;;;;;;4880273;29;20041;-61
2022/12/12 00:24:46;;;;;;;12.73;7.97;;;;;;;;;;4879776;29;20378;-62
2022/12/12 00:27:13;;;;;;;16.35;8.88;;;;;;;;;;4879116;29;20051;-62
2022/12/12 00:29:39;;;;;;;14.65;8.18;;;;;;;;;;4879718;29;20124;-60
2022/12/12 00:32:06;;;;;;;20.05;9.32;;;;;;;;;;4879612;29;20160;-61
2022/12/12 00:34:32;;;;;;;16.40;8.93;;;;;;;;;;4862774;29;20056;-61
2022/12/12 00:36:58;;;;;;;12.75;8.13;;;;;;;;;;4878957;29;20494;-61
2022/12/12 00:39:25;;;;;;;16.35;8.70;;;;;;;;;;4879774;29;20045;-60
2022/12/12 00:41:53;;;;;;;17.52;9.23;;;;;;;;;;4879729;29;20049;-61
2022/12/12 00:44:19;;;;;;;15.25;8.77;;;;;;;;;;4879384;29;20045;-60
2022/12/12 00:46:46;;;;;;;16.95;8.68;;;;;;;;;;4878875;29;20514;-60
2022/12/12 00:49:13;;;;;;;16.08;8.55;;;;;;;;;;4879176;29;20562;-60
2022/12/12 00:51:39;;;;;;;17.77;8.07;;;;;;;;;;4879197;29;20558;-61
2022/12/12 00:54:06;;;;;;;16.15;9.23;;;;;;;;;;4879392;29;20037;-60
2022/12/12 00:56:32;;;;;;;16.98;8.95;;;;;;;;;;4861922;29;20067;-61
2022/12/12 00:59:00;;;;;;;18.00;9.23;;;;;;;;;;4879171;29;20096;-61
2022/12/12 01:01:27;;;;;;;17.85;9.18;;;;;;;;;;4878275;29;20100;-61
2022/12/12 01:03:54;;;;;;;20.90;10.57;;;;;;;;;;4877758;29;20498;-61
2022/12/12 01:06:20;;;;;;;17.40;9.00;;;;;;;;;;4878414;29;20570;-61
2022/12/12 01:08:47;;;;;;;17.85;9.20;;;;;;;;;;4878983;29;20053;-61
2022/12/12 01:11:14;;;;;;;18.58;8.98;;;;;;;;;;4878738;29;20049;-61
2022/12/12 01:13:41;;;;;;;18.27;9.32;;;;;;;;;;4879091;29;20072;-60
2022/12/12 01:16:08;;;;;;;18.40;9.30;;;;;;;;;;4878439;29;20499;-60
2022/12/12 01:18:35;;;;;;;16.35;9.68;;;;;;;;;;4879124;29;20041;-60
2022/12/12 01:21:02;;;;;;;16.05;8.10;;;;;;;;;;4878668;29;20051;-60
2022/12/12 01:23:29;;;;;;;16.50;9.05;;;;;;;;;;4878647;29;20112;-61
2022/12/12 01:25:59;;;;;;;19.85;9.30;;;;;;;;;;4878119;29;20041;-60
2022/12/12 01:28:26;;;;;;;18.10;9.50;;;;;;;;;;4878540;29;20056;-61
2022/12/12 01:30:52;;;;;;;18.95;10.10;;;;;;;;;;4878554;29;20049;-61
2022/12/12 01:33:19;;;;;;;16.45;8.80;;;;;;;;;;4862004;29;20045;-59
2022/12/12 01:35:45;;;;;;;16.10;8.88;;;;;;;;;;4877066;29;20055;-60
2022/12/12 01:38:12;;;;;;;19.42;9.80;;;;;;;;;;4878610;29;20085;-60
2022/12/12 01:40:38;;;;;;;16.42;8.55;;;;;;;;;;4878436;29;20118;-59
2022/12/12 01:43:09;;;;;;;20.35;9.73;;;;;;;;;;4878288;29;20045;-60
2022/12/12 01:46:08;;;;;;;18.38;9.82;;;;;;;;;;4878005;29;20049;-61
2022/12/12 01:48:38;;;;;;;20.15;10.75;;;;;;;;;;4878530;29;20041;-60
2022/12/12 01:51:07;;;;;;;16.60;9.40;;;;;;;;;;4878396;29;20052;-60
2022/12/12 01:53:33;;;;;;;19.77;9.55;;;;;;;;;;4862109;29;20044;-60
2022/12/12 01:56:01;;;;;;;19.27;10.63;;;;;;;;;;4877958;29;20049;-59
2022/12/12 01:58:29;;;;;;;20.25;10.80;;;;;;;;;;4878726;29;20410;-60
2022/12/12 02:00:55;;;;;;;23.88;11.65;;;;;;;;;;4878089;29;20052;-60
2022/12/12 02:03:22;;;;;;;16.15;9.57;;;;;;;;;;4861985;29;20057;-60
2022/12/12 02:05:52;;;;;;;18.60;10.50;;;;;;;;;;4864416;29;20561;-58
2022/12/12 02:08:20;;;;;;;24.77;11.90;;;;;;;;;;4862724;29;20489;-59
2022/12/12 02:10:47;;;;;;;20.05;11.05;;;;;;;;;;4862028;29;20063;-61
2022/12/12 02:13:15;;;;;;;22.20;11.85;;;;;;;;;;4878343;29;20045;-59
2022/12/12 02:15:42;;;;;;;21.02;11.05;;;;;;;;;;4877974;29;20105;-60
2022/12/12 02:18:08;;;;;;;23.42;11.82;;;;;;;;;;4878298;29;20045;-60
2022/12/12 02:20:44;;;;;;;22.25;10.82;;;;;;;;;;4861232;29;20152;-60
2022/12/12 02:23:13;;;;;;;25.42;11.85;;;;;;;;;;4877957;29;20100;-61
2022/12/12 02:26:06;;;;;;;22.50;12.57;;;;;;;;;;4877370;29;20049;-60
2022/12/12 02:28:42;;;;;;;22.67;11.80;;;;;;;;;;4878117;29;20112;-60
2022/12/12 02:31:27;;;;;;;23.85;12.45;;;;;;;;;;4877816;29;20129;-60
2022/12/12 02:33:58;;;;;;;23.33;11.30;;;;;;;;;;4861327;29;20041;-60
2022/12/12 02:36:28;;;;;;;23.33;11.68;;;;;;;;;;4871379;29;20046;-60
2022/12/12 02:39:01;;;;;;;25.05;11.40;;;;;;;;;;4842800;29;20090;-60
2022/12/12 02:41:36;;;;;;;24.27;11.97;;;;;;;;;;4859281;29;20110;-61
2022/12/12 02:44:02;;;;;;;25.58;12.07;;;;;;;;;;4859411;29;20042;-59
2022/12/12 02:46:36;;;;;;;27.60;13.32;;;;;;;;;;4858867;29;20124;-60
2022/12/12 02:49:03;;;;;;;;;;;;;;;;;;4842944;29;20096;-60
2022/12/12 02:51:31;;;;;;;26.15;12.75;;;;;;;;;;4842702;29;19928;-60
2022/12/12 02:53:58;;;;;;;24.02;12.15;;;;;;;;;;4859190;29;20053;-62
2022/12/12 02:56:43;;;;;;;28.10;13.82;;;;;;;;;;4858582;29;20056;-62
2022/12/12 02:59:16;;;;;;;31.80;13.48;;;;;;;;;;4842630;29;20076;-60
2022/12/12 03:01:45;;;;;;;27.50;12.85;;;;;;;;;;4859039;29;20053;-62
2022/12/12 03:10:15;;;;;;;29.08;14.27;;;;;;;;;;4859179;29;20098;-60
2022/12/12 03:12:47;;;;;;;34.95;15.55;;;;;;;;;;4842531;29;20050;-58
2022/12/12 03:15:17;;;;;;;28.80;14.52;;;;;;;;;;4858784;29;20067;-59
2022/12/12 03:17:47;;;;;;;28.70;14.90;;;;;;;;;;4858821;29;20041;-59
2022/12/12 03:20:16;;;;;;;32.78;15.55;;;;;;;;;;4859503;29;20061;-59
2022/12/12 03:22:43;;;;;;;33.10;16.95;;;;;;;;;;4859142;29;20122;-59
2022/12/12 03:25:22;;;;;;;31.27;15.68;;;;;;;;;;4859475;29;20053;-60
2022/12/12 03:28:00;;;;;;;33.78;15.10;;;;;;;;;;4862508;29;20085;-59
2022/12/12 03:30:28;;;;;;;30.33;15.10;;;;;;;;;;4845915;29;20383;-60
2022/12/12 03:32:58;;;;;;;31.40;16.05;;;;;;;;;;4862543;29;20049;-59
2022/12/12 03:35:31;;;;;;;30.20;13.98;;;;;;;;;;4862365;29;20502;-59
2022/12/12 03:38:00;;;;;;;30.25;14.23;;;;;;;;;;4862072;29;20037;-59
2022/12/12 03:40:30;;;;;;;29.98;14.85;;;;;;;;;;4862221;29;20583;-59
2022/12/12 03:43:12;;;;;;;36.65;16.17;;;;;;;;;;4845867;29;20064;-61
2022/12/12 03:45:43;;;;;;;31.20;14.77;;;;;;;;;;4861397;29;20053;-61
2022/12/12 03:48:19;;;;;;;30.63;15.77;;;;;;;;;;4862201;29;20049;-60
2022/12/12 03:50:54;;;;;;;34.33;15.15;;;;;;;;;;4845839;29;20051;-59
2022/12/12 03:53:31;;;;;;;33.28;15.75;;;;;;;;;;4861929;29;20539;-60
2022/12/12 03:56:04;;;;;;;35.25;16.65;;;;;;;;;;4844589;29;20140;-60
2022/12/12 03:58:34;;;;;;;34.50;16.70;;;;;;;;;;4862013;29;20551;-60
2022/12/12 04:01:03;;;;;;;32.72;16.42;;;;;;;;;;4862672;29;20053;-61
2022/12/12 04:03:39;;;;;;;39.60;17.90;;;;;;;;;;4863115;29;20049;-60
2022/12/12 04:06:28;;;;;;;38.13;17.23;;;;;;;;;;4862612;29;20049;-60
2022/12/12 04:14:40;;;;;;;27.67;13.55;;;;;;;;;;4862609;29;20046;-60
2022/12/12 04:17:12;;;;;;;27.13;14.50;;;;;;;;;;4845488;29;20411;-62
2022/12/12 04:25:30;;;;;;;43.40;19.52;;;;;;;;;;4862000;29;20057;-60
2022/12/12 04:28:00;;;;;;;32.17;15.52;;;;;;;;;;4862468;29;20090;-61
2022/12/12 04:30:28;;;;;;;34.85;16.42;;;;;;;;;;4862139;29;20045;-60
2022/12/12 04:33:07;;;;;;;30.40;15.25;;;;;;;;;;4846264;29;20073;-63
2022/12/12 04:35:35;;;;;;;28.75;13.38;;;;;;;;;;4861243;29;20499;-61
2022/12/12 04:38:04;;;;;;;28.55;12.75;;;;;;;;;;4860558;29;20074;-60
2022/12/12 04:40:35;;;;;;;25.42;11.52;;;;;;;;;;4844934;29;20452;-61
2022/12/12 04:43:03;;;;;;;22.77;11.45;;;;;;;;;;4861770;29;20525;-61
2022/12/12 04:45:33;;;;;;;35.00;14.93;;;;;;;;;;4861461;29;20101;-61
2022/12/12 04:48:00;;;;;;;22.75;12.43;;;;;;;;;;4844663;29;20105;-60
2022/12/12 04:50:28;;;;;;;31.35;14.65;;;;;;;;;;4844834;29;20552;-61
2022/12/12 04:52:55;;;;;;;25.65;13.43;;;;;;;;;;4861098;29;20110;-60
2022/12/12 04:55:32;;;;;;;28.20;13.63;;;;;;;;;;4860808;29;20098;-61
2022/12/12 04:58:00;;;;;;;26.00;13.20;;;;;;;;;;4861427;29;20110;-61
2022/12/12 05:03:18;;;;;;;26.55;13.77;;;;;;;;;;5051944;23;20051;-61
2022/12/12 05:05:56;;;;;;;33.67;14.98;;;;;;;;;;4917354;29;20032;-61
2022/12/12 05:08:28;;;;;;;32.28;15.20;;;;;;;;;;4900263;29;20048;-60
2022/12/12 05:10:56;;;;;;;27.83;14.68;;;;;;;;;;4917171;29;20488;-60
2022/12/12 05:13:26;;;;;;;36.50;16.67;;;;;;;;;;4899706;29;20040;-58
2022/12/12 05:15:54;;;;;;;31.15;14.98;;;;;;;;;;4865511;29;20049;-59
2022/12/12 05:18:20;;;;;;;33.45;16.67;;;;;;;;;;4898295;29;20044;-61
2022/12/12 05:20:47;;;;;;;32.47;16.33;;;;;;;;;;4898325;29;20105;-59
2022/12/12 05:23:13;;;;;;;35.83;16.05;;;;;;;;;;4881464;29;20052;-59
2022/12/12 05:25:40;;;;;;;35.10;16.77;;;;;;;;;;4880773;29;20060;-60
2022/12/12 05:28:06;;;;;;;31.42;15.35;;;;;;;;;;4898441;29;20052;-60
2022/12/12 05:30:33;;;;;;;29.58;13.45;;;;;;;;;;4897999;29;20043;-61
2022/12/12 05:33:00;;;;;;;23.33;12.18;;;;;;;;;;4881666;29;20060;-60
2022/12/12 05:35:26;;;;;;;22.10;12.15;;;;;;;;;;4898353;29;20104;-60
2022/12/12 05:37:53;;;;;;;28.05;13.18;;;;;;;;;;4898567;29;20405;-62
2022/12/12 05:40:20;;;;;;;29.42;12.80;;;;;;;;;;4898776;29;20050;-61
2022/12/12 05:42:47;;;;;;;24.27;11.73;;;;;;;;;;4898627;29;20112;-60
2022/12/12 05:45:14;;;;;;;21.25;11.40;;;;;;;;;;4881050;29;20061;-61
2022/12/12 05:47:40;;;;;;;23.13;11.25;;;;;;;;;;4918178;23;20384;-60
2022/12/12 05:50:07;;;;;;;16.85;8.82;;;;;;;;;;4897303;29;20041;-59
2022/12/12 05:52:33;;;;;;;21.85;10.00;;;;;;;;;;4880479;29;20044;-60
2022/12/12 05:55:00;;;;;;;19.67;9.30;;;;;;;;;;4896873;29;20132;-60
2022/12/12 05:57:26;;;;;;;17.17;9.32;;;;;;;;;;4897048;29;20049;-60
2022/12/12 05:59:53;;;;;;;21.25;9.18;;;;;;;;;;4880297;29;20051;-60
2022/12/12 06:02:19;;;;;;;17.67;9.23;;;;;;;;;;4897220;29;20049;-60
2022/12/12 06:04:46;;;;;;;19.08;9.85;;;;;;;;;;4897528;29;20056;-60
2022/12/12 06:07:12;;;;;;;19.58;10.50;;;;;;;;;;4896394;29;20044;-60
2022/12/12 06:09:39;;;;;;;20.17;10.38;;;;;;;;;;4897136;29;20465;-60
2022/12/12 06:12:06;;;;;;;19.17;10.70;;;;;;;;;;4896941;29;20052;-60
2022/12/12 06:14:33;;;;;;;19.73;9.52;;;;;;;;;;4897465;29;20046;-59
2022/12/12 06:16:59;;;;;;;17.45;10.45;;;;;;;;;;4897495;29;20045;-60
2022/12/12 06:19:26;;;;;;;15.27;8.93;;;;;;;;;;4896962;29;20044;-60
2022/12/12 06:21:52;;;;;;;21.40;10.27;;;;;;;;;;4896894;29;20051;-59
2022/12/12 06:24:18;;;;;;;18.63;9.82;;;;;;;;;;4896786;29;20053;-60
2022/12/12 06:26:45;;;;;;;20.67;9.35;;;;;;;;;;4896262;29;20056;-58
2022/12/12 06:29:13;;;;;;;19.20;9.48;;;;;;;;;;4880170;29;20390;-58
2022/12/12 06:31:40;;;;;;;18.45;9.43;;;;;;;;;;4896930;29;20494;-58
2022/12/12 06:34:06;;;;;;;19.95;10.23;;;;;;;;;;4896882;29;20611;-58
2022/12/12 06:36:33;;;;;;;21.75;11.95;;;;;;;;;;4896374;29;20096;-58
2022/12/12 06:38:59;;;;;;;29.23;12.98;;;;;;;;;;4896751;29;20110;-58
2022/12/12 06:41:27;;;;;;;24.70;12.95;;;;;;;;;;4897039;29;20056;-58
2022/12/12 06:43:54;;;;;;;26.90;12.70;;;;;;;;;;4896751;29;20401;-58
2022/12/12 06:46:22;;;;;;;24.85;12.25;;;;;;;;;;4896220;29;20040;-60
2022/12/12 06:48:49;;;;;;;24.45;12.27;;;;;;;;;;4880066;29;20105;-59
2022/12/12 06:51:18;;;;;;;20.60;10.77;;;;;;;;;;4896758;29;20067;-59
2022/12/12 06:53:44;;;;;;;19.45;10.13;;;;;;;;;;4896955;29;20374;-60
2022/12/12 06:56:12;;;;;;;23.23;11.77;;;;;;;;;;4879770;29;20064;-59
2022/12/12 06:58:39;;;;;;;23.77;11.07;;;;;;;;;;4879941;29;20430;-60
2022/12/12 07:01:06;;;;;;;23.25;10.75;;;;;;;;;;4882068;29;20108;-59
2022/12/12 07:03:32;;;;;;;21.80;11.10;;;;;;;;;;4900888;29;20053;-58
2022/12/12 07:05:59;;;;;;;21.75;10.02;;;;;;;;;;4899880;29;20532;-59
2022/12/12 07:08:27;;;;;;;23.50;10.07;;;;;;;;;;4900368;29;20511;-59
2022/12/12 07:10:54;;;;;;;21.70;10.07;;;;;;;;;;4900205;29;20108;-60
2022/12/12 07:13:20;;;;;;;22.30;10.43;;;;;;;;;;4900464;29;20053;-59
2022/12/12 07:15:48;;;;;;;19.50;10.48;;;;;;;;;;4899632;29;20056;-59
2022/12/12 07:18:16;;;;;;;25.27;12.18;;;;;;;;;;4900204;29;20573;-59
2022/12/12 07:20:43;;;;;;;29.10;12.88;;;;;;;;;;4900352;29;20119;-58
2022/12/12 07:23:09;;;;;;;24.95;12.02;;;;;;;;;;4900053;29;20056;-61
2022/12/12 07:25:37;;;;;;;23.88;11.65;;;;;;;;;;4899479;29;20474;-61
2022/12/12 07:28:04;;;;;;;22.90;11.82;;;;;;;;;;4900059;29;20417;-62
2022/12/12 07:30:30;;;;;;;27.52;11.55;;;;;;;;;;4900024;29;20118;-61
2022/12/12 07:32:57;;;;;;;28.35;13.45;;;;;;;;;;4883207;29;20052;-63
2022/12/12 07:35:24;;;;;;;32.63;13.88;;;;;;;;;;4899259;29;20044;-60
2022/12/12 07:37:58;;;;;;;29.52;13.52;;;;;;;;;;4899892;29;20048;-62
2022/12/12 07:40:24;;;;;;;26.70;13.18;;;;;;;;;;4899827;29;20115;-62
2022/12/12 07:42:51;;;;;;;30.05;14.40;;;;;;;;;;4883004;29;20509;-63
2022/12/12 07:45:17;;;;;;;29.80;14.02;;;;;;;;;;4899012;29;20493;-61
2022/12/12 07:47:44;;;;;;;29.17;13.88;;;;;;;;;;4899516;29;20044;-61
2022/12/12 07:50:11;;;;;;;30.30;13.98;;;;;;;;;;4899509;29;20041;-60
2022/12/12 07:52:37;;;;;;;27.40;12.18;;;;;;;;;;4899419;29;20083;-61
2022/12/12 07:55:04;;;;;;;27.25;12.60;;;;;;;;;;4899015;29;20048;-62
2022/12/12 07:57:32;;;;;;;33.17;13.27;;;;;;;;;;4867369;29;20044;-63
2022/12/12 07:59:58;;;;;;;28.25;13.88;;;;;;;;;;4899645;29;20040;-61
2022/12/12 08:02:25;;;;;;;30.67;14.73;;;;;;;;;;4867234;29;20059;-62
2022/12/12 08:04:51;;;;;;;30.65;13.05;;;;;;;;;;4899286;29;20056;-61
2022/12/12 08:07:18;;;;;;;39.85;16.50;;;;;;;;;;4898619;29;20089;-60
2022/12/12 08:09:44;;;;;;;35.58;16.38;;;;;;;;;;4882399;29;20052;-61
2022/12/12 08:12:11;;;;;;;30.38;13.35;;;;;;;;;;4881921;29;20045;-61
2022/12/12 08:14:37;;;;;;;25.67;13.93;;;;;;;;;;4882540;29;20045;-64
2022/12/12 08:17:04;;;;;;;27.90;13.32;;;;;;;;;;4866216;29;20087;-63
2022/12/12 08:19:31;;;;;;;32.60;14.52;;;;;;;;;;4882135;29;20504;-61
2022/12/12 08:21:57;;;;;;;23.98;13.07;;;;;;;;;;4882244;29;20052;-64
2022/12/12 08:24:24;;;;;;;26.45;12.90;;;;;;;;;;4882254;29;20045;-62
2022/12/12 08:26:51;;;;;;;26.10;12.57;;;;;;;;;;4881784;29;20089;-64
2022/12/12 08:29:17;;;;;;;26.73;11.68;;;;;;;;;;4882681;29;20064;-63
2022/12/12 08:31:44;;;;;;;23.23;12.18;;;;;;;;;;4899201;29;20045;-61
2022/12/12 08:34:11;;;;;;;21.55;11.85;;;;;;;;;;4898848;29;20092;-62
2022/12/12 08:36:37;;;;;;;24.73;11.98;;;;;;;;;;4898101;29;20081;-62
2022/12/12 08:39:03;;;;;;;24.17;11.52;;;;;;;;;;4898731;29;20387;-61
2022/12/12 08:41:30;;;;;;;23.02;11.70;;;;;;;;;;4898519;29;20056;-60
2022/12/12 08:43:56;;;;;;;21.65;11.95;;;;;;;;;;4898561;29;20055;-61
2022/12/12 08:46:23;;;;;;;21.63;11.95;;;;;;;;;;4881822;29;20052;-64
2022/12/12 08:48:49;;;;;;;25.60;11.93;;;;;;;;;;4899042;29;20049;-62
2022/12/12 08:51:16;;;;;;;28.23;13.45;;;;;;;;;;4899195;29;20049;-63
2022/12/12 08:53:44;;;;;;;33.60;13.85;;;;;;;;;;4898499;29;20036;-61
2022/12/12 08:56:10;;;;;;;24.02;12.25;;;;;;;;;;4897713;29;20041;-64
2022/12/12 08:58:36;;;;;;;29.83;14.35;;;;;;;;;;4898592;29;20126;-63
2022/12/12 09:01:08;;;;;;;29.60;14.75;;;;;;;;;;4898389;29;20052;-62
2022/12/12 09:03:35;;;;;;;28.90;13.18;;;;;;;;;;4898525;29;20084;-63
2022/12/12 09:06:01;;;;;;;29.83;14.10;;;;;;;;;;4898007;29;20071;-62
2022/12/12 09:08:27;;;;;;;28.52;13.50;;;;;;;;;;4881021;29;20056;-62
2022/12/12 09:10:54;;;;;;;31.83;14.98;;;;;;;;;;4881753;29;20068;-62
2022/12/12 09:13:20;;;;;;;27.77;13.15;;;;;;;;;;4898149;29;20054;-60
2022/12/12 09:15:52;;;;;;;29.13;12.93;;;;;;;;;;4880857;29;20076;-59
2022/12/12 09:18:19;;;;;;;28.98;14.45;;;;;;;;;;4881129;29;20048;-60
2022/12/12 09:20:49;;;;;;;32.67;13.55;;;;;;;;;;4897895;29;20100;-60
2022/12/12 09:23:16;;;;;;;31.38;14.20;;;;;;;;;;4897306;29;20564;-61
2022/12/12 09:25:43;;;;;;;30.50;14.70;;;;;;;;;;4897249;29;20096;-61
2022/12/12 09:28:10;;;;;;;30.02;15.40;;;;;;;;;;4881007;29;20092;-61
2022/12/12 09:30:37;;;;;;;30.77;14.70;;;;;;;;;;4898078;29;20044;-61
2022/12/12 09:33:04;;;;;;;32.22;15.70;;;;;;;;;;4898510;29;20056;-63
2022/12/12 09:35:30;;;;;;;26.42;12.73;;;;;;;;;;4880376;29;20139;-64
2022/12/12 09:37:57;;;;;;;27.00;13.52;;;;;;;;;;4897872;29;20048;-60
2022/12/12 09:40:30;;;;;;;27.08;12.95;;;;;;;;;;4897750;29;20072;-63
2022/12/12 09:42:58;;;;;;;30.77;13.90;;;;;;;;;;4898922;29;20503;-58
2022/12/12 09:45:25;;;;;;;30.70;14.55;;;;;;;;;;4880542;29;20120;-62
2022/12/12 09:47:55;;;;;;;31.77;15.25;;;;;;;;;;4897174;29;20144;-61
2022/12/12 09:50:26;;;;;;;25.35;12.30;;;;;;;;;;4880843;29;20052;-60
2022/12/12 09:52:54;;;;;;;24.55;12.43;;;;;;;;;;4880642;29;20045;-61
2022/12/12 09:55:32;;;;;;;27.02;14.18;;;;;;;;;;4896369;29;20052;-60
2022/12/12 09:58:18;;;;;;;29.17;13.20;;;;;;;;;;4897593;29;20051;-63
2022/12/12 10:00:50;;;;;;;28.73;14.30;;;;;;;;;;4897448;29;20045;-62
2022/12/12 10:03:21;;;;;;;33.10;14.75;;;;;;;;;;4897469;29;20127;-59
2022/12/12 10:05:52;;;;;;;37.35;18.10;;;;;;;;;;4879970;29;20060;-60
2022/12/12 10:08:42;;;;;;;28.35;14.30;;;;;;;;;;4897340;29;20064;-58
2022/12/12 10:13:59;;;;;;;29.20;14.93;;;;;;;;;;4880556;29;20080;-59
2022/12/12 10:16:27;;;;;;;31.95;15.00;;;;;;;;;;4896727;29;20052;-61
2022/12/12 10:18:57;;;;;;;31.35;16.33;;;;;;;;;;4897561;29;20490;-61
2022/12/12 10:21:26;;;;;;;31.02;14.70;;;;;;;;;;4897247;29;20052;-60
2022/12/12 10:24:12;;;;;;;28.35;14.50;;;;;;;;;;4865746;29;20532;-61
2022/12/12 10:26:41;;;;;;;34.90;15.18;;;;;;;;;;4864724;29;20512;-64
2022/12/12 10:29:10;;;;;;;30.15;14.80;;;;;;;;;;4881418;29;20501;-64
2022/12/12 10:31:39;;;;;;;28.63;14.10;;;;;;;;;;4865770;29;20127;-59
2022/12/12 10:34:18;;;;;;;31.98;15.05;;;;;;;;;;4880892;29;20131;-60
2022/12/12 10:36:59;;;;;;;36.20;17.13;;;;;;;;;;4900555;29;20049;-59
2022/12/12 10:39:33;;;;;;;31.40;15.43;;;;;;;;;;4884672;29;20044;-60
2022/12/12 10:42:12;;;;;;;30.20;15.07;;;;;;;;;;4901438;29;20075;-60
2022/12/12 10:44:41;;;;;;;30.35;14.88;;;;;;;;;;4901518;29;20044;-60
2022/12/12 10:47:13;;;;;;;27.73;14.75;;;;;;;;;;4900041;29;20078;-60
2022/12/12 10:49:40;;;;;;;30.38;15.60;;;;;;;;;;4900907;29;20041;-58
2022/12/12 10:52:25;;;;;;;35.22;16.88;;;;;;;;;;4901032;29;20044;-62
2022/12/12 10:54:51;;;;;;;;;;;;;;;;;;4901175;29;20187;-62
2022/12/12 10:57:23;;;;;;;30.30;15.73;;;;;;;;;;4900025;29;20308;-62
2022/12/12 10:59:51;;;;;;;33.80;16.48;;;;;;;;;;4900713;29;20124;-58
2022/12/12 11:02:26;;;;;;;31.80;15.27;;;;;;;;;;4884514;29;20048;-59
2022/12/12 11:04:57;;;;;;;31.42;16.23;;;;;;;;;;4901411;29;20053;-59
2022/12/12 11:07:23;;;;;;;29.90;14.50;;;;;;;;;;4901190;29;20056;-58
2022/12/12 11:09:50;;;;;;;32.15;16.05;;;;;;;;;;4900833;29;20049;-58
2022/12/12 11:12:16;;;;;;;27.30;13.98;;;;;;;;;;4900266;29;20546;-61
2022/12/12 11:14:50;;;;;;;34.03;16.35;;;;;;;;;;4900281;29;20052;-62
2022/12/12 11:17:17;;;;;;;;;;;;;;;;;;4900243;29;20052;-62
2022/12/12 11:19:44;;;;;;;31.60;15.18;;;;;;;;;;4900442;29;19931;-60
2022/12/12 11:22:13;;;;;;;29.45;15.55;;;;;;;;;;4900420;29;20045;-59
2022/12/12 11:24:44;;;;;;;30.33;15.05;;;;;;;;;;4900160;29;20052;-60
2022/12/12 11:27:19;;;;;;;31.60;16.45;;;;;;;;;;4899427;29;20108;-57
2022/12/12 11:29:47;;;;;;;33.20;15.00;;;;;;;;;;4867756;29;20057;-61
2022/12/12 11:32:25;;;;;;;29.58;14.88;;;;;;;;;;4899905;29;20047;-64
2022/12/12 11:34:54;;;;;;;26.98;14.10;;;;;;;;;;4899934;29;20055;-60
2022/12/12 11:37:23;;;;;;;36.22;16.42;;;;;;;;;;4899375;29;20051;-58
2022/12/12 11:39:50;;;;;;;30.85;14.52;;;;;;;;;;4899765;29;20517;-58
2022/12/12 11:42:17;;;;;;;32.05;15.27;;;;;;;;;;4899935;29;20124;-58
2022/12/12 11:44:44;;;;;;;32.47;15.20;;;;;;;;;;4882802;29;20100;-58
2022/12/12 11:47:27;;;;;;;31.23;17.20;;;;;;;;;;4898301;29;20045;-59
2022/12/12 11:49:58;;;;;;;30.48;15.02;;;;;;;;;;4883395;29;20455;-60
2022/12/12 11:52:26;;;;;;;29.65;14.45;;;;;;;;;;4883047;29;20092;-63
2022/12/12 11:54:53;;;;;;;29.83;15.05;;;;;;;;;;4899532;29;20044;-63
2022/12/12 11:57:27;;;;;;;28.30;14.77;;;;;;;;;;4899484;29;20086;-60
2022/12/12 12:00:04;;;;;;;31.05;15.05;;;;;;;;;;4899673;29;20060;-60
2022/12/12 12:02:38;;;;;;;28.02;15.27;;;;;;;;;;4899914;29;20046;-60
2022/12/12 12:05:14;;;;;;;32.00;16.23;;;;;;;;;;4899726;29;20498;-61
2022/12/12 12:07:53;;;;;;;30.50;15.80;;;;;;;;;;4900502;29;20123;-60
2022/12/12 12:10:40;;;;;;;34.55;15.75;;;;;;;;;;4901149;29;20048;-59
2022/12/12 12:13:14;;;;;;;30.60;14.20;;;;;;;;;;4899633;29;20048;-60
2022/12/12 12:15:50;;;;;;;29.00;15.02;;;;;;;;;;4898942;29;20501;-60
2022/12/12 12:18:22;;;;;;;26.83;14.20;;;;;;;;;;4899767;29;20045;-61
2022/12/12 12:21:12;;;;;;;33.22;13.90;;;;;;;;;;4898526;29;20088;-59
2022/12/12 12:23:51;;;;;;;33.85;15.02;;;;;;;;;;4899689;29;20057;-57
2022/12/12 12:26:36;;;;;;;29.98;14.57;;;;;;;;;;4899461;29;20548;-61
2022/12/12 12:29:03;;;;;;;29.65;14.35;;;;;;;;;;4900330;29;20423;-62
2022/12/12 12:31:30;;;;;;;32.25;15.73;;;;;;;;;;4901683;29;20051;-62
2022/12/12 12:34:07;;;;;;;31.73;15.05;;;;;;;;;;4899798;29;20419;-61
2022/12/12 12:36:39;;;;;;;30.85;15.52;;;;;;;;;;4899673;29;20116;-62
2022/12/12 12:39:11;;;;;;;27.65;15.32;;;;;;;;;;4899543;29;20072;-62
2022/12/12 12:41:53;;;;;;;27.50;13.90;;;;;;;;;;4899821;29;20037;-60
2022/12/12 12:44:34;;;;;;;29.33;14.77;;;;;;;;;;4901944;29;20044;-61
2022/12/12 12:47:17;;;;;;;29.67;15.90;;;;;;;;;;4899316;29;20040;-59
2022/12/12 12:49:56;;;;;;;26.65;13.52;;;;;;;;;;4900424;29;20458;-60
2022/12/12 12:52:33;;;;;;;25.90;13.38;;;;;;;;;;4900952;29;20044;-62
2022/12/12 12:54:59;;;;;;;29.70;13.68;;;;;;;;;;4900576;29;20049;-62
2022/12/12 12:57:31;;;;;;;30.42;14.43;;;;;;;;;;4899996;29;20073;-62
2022/12/12 13:00:02;;;;;;;26.85;13.85;;;;;;;;;;4901772;29;20037;-61
2022/12/12 13:02:34;;;;;;;27.65;14.15;;;;;;;;;;4899738;29;20052;-59
2022/12/12 13:05:05;;;;;;;27.05;14.02;;;;;;;;;;4900212;29;20461;-61
2022/12/12 13:07:40;;;;;;;37.03;15.40;;;;;;;;;;4900151;29;20060;-60
2022/12/12 13:10:20;;;;;;;31.35;14.07;;;;;;;;;;4899227;29;20050;-59
2022/12/12 13:12:51;;;;;;;31.05;14.82;;;;;;;;;;4899563;29;20100;-61
2022/12/12 13:15:24;;;;;;;28.27;14.00;;;;;;;;;;4898437;29;20045;-60
2022/12/12 13:17:56;;;;;;;26.17;13.27;;;;;;;;;;4899351;29;20066;-61
2022/12/12 13:20:24;;;;;;;27.25;13.90;;;;;;;;;;4900533;29;20520;-61
2022/12/12 13:23:09;;;;;;;24.92;12.93;;;;;;;;;;4900769;29;20051;-62
2022/12/12 13:25:42;;;;;;;23.73;12.30;;;;;;;;;;4897592;29;20049;-59
2022/12/12 13:28:14;;;;;;;27.83;13.02;;;;;;;;;;4898089;29;20142;-60
2022/12/12 13:30:49;;;;;;;22.08;11.48;;;;;;;;;;4897844;29;20052;-62
2022/12/12 13:33:31;;;;;;;20.85;11.02;;;;;;;;;;4896681;29;20422;-61
2022/12/12 13:36:06;;;;;;;22.83;10.70;;;;;;;;;;4897352;29;20116;-60
2022/12/12 13:38:33;;;;;;;19.38;9.98;;;;;;;;;;4897751;29;20037;-59
2022/12/12 13:41:05;;;;;;;20.67;10.75;;;;;;;;;;4897852;29;20052;-60
2022/12/12 13:43:37;;;;;;;19.20;10.77;;;;;;;;;;4896732;29;20148;-60
2022/12/12 13:46:19;;;;;;;22.13;10.75;;;;;;;;;;4896801;29;20049;-62
2022/12/12 13:48:48;;;;;;;21.65;10.93;;;;;;;;;;4896192;29;20059;-61
2022/12/12 13:51:27;;;;;;;21.65;10.32;;;;;;;;;;4896073;29;20052;-61
2022/12/12 13:54:05;;;;;;;18.23;10.85;;;;;;;;;;4897502;29;20044;-59
2022/12/12 13:56:45;;;;;;;21.40;10.77;;;;;;;;;;4896969;29;20096;-60
2022/12/12 13:59:13;;;;;;;23.88;12.13;;;;;;;;;;4911310;23;20048;31
2022/12/12 14:01:39;;;;;;;19.58;10.27;;;;;;;;;;4857706;29;20054;-61
2022/12/12 14:04:43;;;;;;;19.58;11.05;;;;;;;;;;4844276;29;20048;-60
2022/12/12 14:07:15;;;;;;;17.80;9.98;;;;;;;;;;4787928;29;20435;-61
2022/12/12 14:09:44;;;;;;;25.02;11.38;;;;;;;;;;4851313;29;20114;-60
2022/12/12 14:12:23;;;;;;;28.30;11.67;;;;;;;;;;4860277;29;20045;-60
2022/12/12 14:14:57;;;;;;;23.30;12.55;;;;;;;;;;4860128;29;20498;-60
2022/12/12 14:17:25;;;;;;;25.95;13.57;;;;;;;;;;4860099;29;20041;-60
2022/12/12 14:19:53;;;;;;;22.77;12.32;;;;;;;;;;4860194;29;20074;-61
2022/12/12 14:22:48;;;;;;;24.63;12.95;;;;;;;;;;4860932;29;20037;-62
2022/12/12 14:25:16;;;;;;;22.75;11.82;;;;;;;;;;4868772;29;20129;-60
2022/12/12 14:27:48;;;;;;;22.08;11.60;;;;;;;;;;4873049;29;20050;-61
2022/12/12 14:30:32;;;;;;;23.05;12.05;;;;;;;;;;4861843;29;20778;-59
2022/12/12 14:33:10;;;;;;;24.03;12.50;;;;;;;;;;4860982;29;20129;-61
2022/12/12 14:35:50;;;;;;;26.63;12.85;;;;;;;;;;4859759;29;20046;-59
2022/12/12 14:38:25;;;;;;;27.60;14.15;;;;;;;;;;4844096;29;20086;-62
2022/12/12 14:40:55;;;;;;;22.80;12.88;;;;;;;;;;4860485;29;20050;-61
2022/12/12 14:43:29;;;;;;;25.30;13.50;;;;;;;;;;4860984;29;20045;-61
2022/12/12 14:45:57;;;;;;;22.73;12.73;;;;;;;;;;4859642;29;20455;-63
2022/12/12 14:48:27;;;;;;;24.75;13.13;;;;;;;;;;4859825;29;20046;-62
2022/12/12 14:50:56;;;;;;;25.70;12.88;;;;;;;;;;4859952;29;20102;-62
2022/12/12 14:53:24;;;;;;;25.20;12.63;;;;;;;;;;4859751;29;20045;-62
2022/12/12 14:55:51;;;;;;;25.63;12.20;;;;;;;;;;4859156;29;20106;-61
2022/12/12 14:58:23;;;;;;;27.75;13.35;;;;;;;;;;4860143;29;20109;-61
2022/12/12 15:00:51;;;;;;;23.80;12.73;;;;;;;;;;4859991;29;20041;-61